createdAt,value
2019-01-31T00:01:38.343Z,11.30
2019-01-31T00:04:51.847Z,13.03
2019-01-31T00:07:54.325Z,10.53
2019-01-31T00:10:59.045Z,11.03
2019-01-31T00:14:17.013Z,12.07
2019-01-31T00:17:27.088Z,12.50
2019-01-31T00:20:43.176Z,9.77
2019-01-31T00:24:04.705Z,9.60
2019-01-31T00:27:17.756Z,8.80
2019-01-31T00:30:09.871Z,8.73
2019-01-31T00:33:24.409Z,10.23
2019-01-31T00:36:23.347Z,12.20
2019-01-31T00:39:14.857Z,11.17
2019-01-31T00:42:18.987Z,9.90
2019-01-31T00:45:26.248Z,9.90
2019-01-31T00:48:44.133Z,11.03
2019-01-31T00:51:42.830Z,12.53
2019-01-31T00:54:50.515Z,11.30
2019-01-31T00:58:23.341Z,12.00
2019-01-31T01:01:37.267Z,10.97
2019-01-31T01:04:44.230Z,14.47
2019-01-31T01:08:07.923Z,11.57
2019-01-31T01:10:45.500Z,10.47
2019-01-31T01:13:58.645Z,13.60
2019-01-31T01:17:15.174Z,13.17
2019-01-31T01:20:18.854Z,14.23
2019-01-31T01:22:53.430Z,15.10
2019-01-31T01:26:15.657Z,16.07
2019-01-31T01:29:20.320Z,16.47
2019-01-31T01:32:13.886Z,16.90
2019-01-31T01:35:01.223Z,18.43
2019-01-31T01:38:04.656Z,18.43
2019-01-31T01:41:31.368Z,19.87
2019-01-31T01:44:45.320Z,20.90
2019-01-31T01:47:37.460Z,23.03
2019-01-31T01:50:17.710Z,24.43
2019-01-31T01:53:37.134Z,24.40
2019-01-31T01:56:38.605Z,24.90
2019-01-31T02:00:05.666Z,26.87
2019-01-31T02:03:14.042Z,24.07
2019-01-31T02:06:30.420Z,24.17
2019-01-31T02:09:33.934Z,23.00
2019-01-31T02:12:34.495Z,26.23
2019-01-31T02:15:34.736Z,28.67
2019-01-31T02:18:29.722Z,31.13
2019-01-31T02:21:42.975Z,31.90
2019-01-31T02:24:33.950Z,31.20
2019-01-31T02:27:33.796Z,30.33
2019-01-31T02:30:31.478Z,32.30
2019-01-31T02:33:42.776Z,35.80
2019-01-31T02:36:36.578Z,32.17
2019-01-31T02:39:28.087Z,30.20
2019-01-31T02:42:55.396Z,32.00
2019-01-31T02:45:45.722Z,32.30
2019-01-31T02:48:24.917Z,35.97
2019-01-31T02:51:41.653Z,38.80
2019-01-31T02:54:45.072Z,33.43
2019-01-31T02:58:02.824Z,32.17
2019-01-31T03:00:51.664Z,27.93
2019-01-31T03:04:24.151Z,30.60
2019-01-31T03:07:35.251Z,28.60
2019-01-31T03:10:47.709Z,35.23
2019-01-31T03:13:42.989Z,32.13
2019-01-31T03:17:02.777Z,31.73
2019-01-31T03:19:47.596Z,32.47
2019-01-31T03:22:58.159Z,32.63
2019-01-31T03:25:51.639Z,31.07
2019-01-31T03:28:31.789Z,36.97
2019-01-31T03:32:04.424Z,35.40
2019-01-31T03:34:59.458Z,34.63
2019-01-31T03:37:58.004Z,37.53
2019-01-31T03:40:55.802Z,35.17
2019-01-31T03:44:07.145Z,39.27
2019-01-31T03:47:11.454Z,36.27
2019-01-31T03:50:09.184Z,42.80
2019-01-31T03:53:28.642Z,41.37
2019-01-31T03:56:44.147Z,38.77
2019-01-31T03:59:47.982Z,39.13
2019-01-31T04:02:41.107Z,38.87
2019-01-31T04:05:36.164Z,43.07
2019-01-31T04:08:06.972Z,37.00
2019-01-31T04:10:37.564Z,35.90
2019-01-31T04:13:09.844Z,36.33
2019-01-31T04:15:40.365Z,34.97
2019-01-31T04:18:10.679Z,34.93
2019-01-31T04:20:40.900Z,34.67
2019-01-31T04:23:11.121Z,35.97
2019-01-31T04:25:41.548Z,34.30
2019-01-31T04:28:11.748Z,34.00
2019-01-31T04:30:41.949Z,34.47
2019-01-31T04:33:12.431Z,32.47
2019-01-31T04:35:43.022Z,32.13
2019-01-31T04:38:13.579Z,34.90
2019-01-31T04:40:44.197Z,33.37
2019-01-31T04:43:14.815Z,36.13
2019-01-31T04:45:45.088Z,41.03
2019-01-31T04:48:15.334Z,39.77
2019-01-31T04:50:45.650Z,41.40
2019-01-31T04:53:16.255Z,39.20
2019-01-31T04:55:46.529Z,37.10
2019-01-31T04:58:17.113Z,36.37
2019-01-31T05:00:47.384Z,33.13
2019-01-31T05:03:17.607Z,34.43
2019-01-31T05:05:48.187Z,35.50
2019-01-31T05:08:18.442Z,36.13
2019-01-31T05:10:48.825Z,34.13
2019-01-31T05:13:19.683Z,35.13
2019-01-31T05:15:49.952Z,36.10
2019-01-31T05:18:20.288Z,32.50
2019-01-31T05:20:50.511Z,36.70
2019-01-31T05:23:20.758Z,34.47
2019-01-31T05:25:51.049Z,34.60
2019-01-31T05:28:21.651Z,34.13
2019-01-31T05:30:51.849Z,35.43
2019-01-31T05:33:22.038Z,36.60
2019-01-31T05:35:52.173Z,34.53
2019-01-31T05:38:22.763Z,30.57
2019-01-31T05:40:55.588Z,30.10
2019-01-31T05:43:25.206Z,33.73
2019-01-31T05:45:55.322Z,30.23
2019-01-31T05:48:25.939Z,31.13
2019-01-31T05:50:56.150Z,30.13
2019-01-31T05:53:26.666Z,29.70
2019-01-31T05:55:57.828Z,27.67
2019-01-31T05:58:28.483Z,27.97
2019-01-31T06:00:58.677Z,29.23
2019-01-31T06:03:29.250Z,29.33
2019-01-31T06:05:59.522Z,29.83
2019-01-31T06:08:30.029Z,31.23
2019-01-31T06:11:07.487Z,32.40
2019-01-31T06:13:32.489Z,32.23
2019-01-31T06:16:02.711Z,34.90
2019-01-31T06:18:33.342Z,34.57
2019-01-31T06:21:03.908Z,33.00
2019-01-31T06:23:34.551Z,34.20
2019-01-31T06:26:04.809Z,35.10
2019-01-31T06:28:34.998Z,35.43
2019-01-31T06:31:05.207Z,32.23
2019-01-31T06:33:35.402Z,34.17
2019-01-31T06:36:06.004Z,34.27
2019-01-31T06:38:36.195Z,36.13
2019-01-31T06:41:06.490Z,35.17
2019-01-31T06:43:36.721Z,33.63
2019-01-31T06:46:09.074Z,35.70
2019-01-31T06:48:39.266Z,37.80
2019-01-31T06:51:10.536Z,35.30
2019-01-31T06:53:40.983Z,32.80
2019-01-31T06:56:11.153Z,36.30
2019-01-31T06:58:41.384Z,36.20
2019-01-31T07:01:11.693Z,34.57
2019-01-31T07:03:41.975Z,35.23
2019-01-31T07:06:12.287Z,32.87
2019-01-31T07:08:42.546Z,36.57
2019-01-31T07:11:12.784Z,32.60
2019-01-31T07:13:43.061Z,33.57
2019-01-31T07:16:13.407Z,37.00
2019-01-31T07:18:43.959Z,34.67
2019-01-31T07:21:14.183Z,34.48
2019-01-31T07:23:46.003Z,36.23
2019-01-31T07:26:16.446Z,33.80
2019-01-31T07:28:47.435Z,38.03
2019-01-31T07:31:17.637Z,35.27
2019-01-31T07:33:48.200Z,35.13
2019-01-31T07:36:18.499Z,35.33
2019-01-31T07:38:49.529Z,37.60
2019-01-31T07:41:19.775Z,39.03
2019-01-31T07:43:50.422Z,36.93
2019-01-31T07:46:21.048Z,33.23
2019-01-31T07:48:51.312Z,34.03
2019-01-31T07:51:21.801Z,36.90
2019-01-31T07:53:52.076Z,43.07
2019-01-31T07:56:22.289Z,47.50
2019-01-31T07:58:52.448Z,47.23
2019-01-31T08:01:22.806Z,48.07
2019-01-31T08:04:02.252Z,43.43
2019-01-31T08:06:25.301Z,46.50
2019-01-31T08:08:55.896Z,41.47
2019-01-31T08:11:26.510Z,37.53
2019-01-31T08:13:57.096Z,35.40
2019-01-31T08:16:27.368Z,33.20
2019-01-31T08:18:57.860Z,37.13
2019-01-31T08:21:28.140Z,36.23
2019-01-31T08:23:58.402Z,39.87
2019-01-31T08:26:28.955Z,33.43
2019-01-31T08:28:59.636Z,36.60
2019-01-31T08:31:29.914Z,31.33
2019-01-31T08:34:00.184Z,30.97
2019-01-31T08:36:31.282Z,32.57
2019-01-31T08:39:01.520Z,32.30
2019-01-31T08:41:31.799Z,32.23
2019-01-31T08:44:02.025Z,37.97
2019-01-31T08:46:32.642Z,30.90
2019-01-31T08:49:03.862Z,31.90
2019-01-31T08:51:34.094Z,30.57
2019-01-31T08:54:05.136Z,30.43
2019-01-31T08:56:35.338Z,36.40
2019-01-31T08:59:05.884Z,32.33
2019-01-31T09:01:36.100Z,37.70
2019-01-31T09:04:06.413Z,38.63
2019-01-31T09:06:36.652Z,36.23
2019-01-31T09:09:10.643Z,32.90
2019-01-31T09:11:40.821Z,45.47
2019-01-31T09:14:11.343Z,30.43
2019-01-31T09:16:41.850Z,29.10
2019-01-31T09:19:12.025Z,31.47
2019-01-31T09:21:59.327Z,28.57
2019-01-31T09:24:49.797Z,23.97
2019-01-31T09:27:58.202Z,21.97
2019-01-31T09:30:47.488Z,28.70
2019-01-31T09:33:59.935Z,25.90
2019-01-31T09:37:23.573Z,24.17
2019-01-31T09:40:24.394Z,29.00
2019-01-31T09:43:23.753Z,29.07
2019-01-31T09:46:19.501Z,38.73
2019-01-31T09:49:34.473Z,31.60
2019-01-31T09:52:25.651Z,35.33
2019-01-31T09:55:29.949Z,33.37
2019-01-31T09:58:28.067Z,31.87
2019-01-31T10:01:35.158Z,34.67
2019-01-31T10:04:58.805Z,30.83
2019-01-31T10:08:14.161Z,31.00
2019-01-31T10:11:11.605Z,26.07
2019-01-31T10:14:09.045Z,24.73
2019-01-31T10:17:03.026Z,22.77
2019-01-31T10:19:50.054Z,21.10
2019-01-31T10:23:19.926Z,19.30
2019-01-31T10:26:46.862Z,22.83
2019-01-31T10:30:01.702Z,27.47
2019-01-31T10:33:16.241Z,26.77
2019-01-31T10:36:30.585Z,22.40
2019-01-31T10:39:47.646Z,20.03
2019-01-31T10:42:54.272Z,19.53
2019-01-31T10:46:24.696Z,19.23
2019-01-31T10:49:57.328Z,18.67
2019-01-31T10:52:54.085Z,17.67
2019-01-31T10:56:08.544Z,15.93
2019-01-31T10:59:09.686Z,21.70
2019-01-31T11:02:30.013Z,18.93
2019-01-31T11:05:52.374Z,15.70
2019-01-31T11:08:56.352Z,17.33
2019-01-31T11:12:06.894Z,16.40
2019-01-31T11:15:21.716Z,17.13
2019-01-31T11:18:09.468Z,19.50
2019-01-31T11:21:16.005Z,18.50
2019-01-31T11:24:37.639Z,18.57
2019-01-31T11:27:35.331Z,18.20
2019-01-31T11:30:45.711Z,16.60
2019-01-31T11:34:03.821Z,18.17
2019-01-31T11:37:21.381Z,20.10
2019-01-31T11:40:44.781Z,17.47
2019-01-31T11:43:48.349Z,19.07
2019-01-31T11:46:25.587Z,16.23
2019-01-31T11:49:36.631Z,19.30
2019-01-31T11:52:51.681Z,17.33
2019-01-31T11:56:01.943Z,17.17
2019-01-31T11:59:03.103Z,19.83
2019-01-31T12:01:33.758Z,17.37
2019-01-31T12:04:17.709Z,17.80
2019-01-31T12:06:48.651Z,16.60
2019-01-31T12:09:22.570Z,17.87
2019-01-31T12:11:53.155Z,15.50
2019-01-31T12:14:23.465Z,19.23
2019-01-31T12:16:53.866Z,18.73
2019-01-31T12:19:25.112Z,18.57
2019-01-31T12:21:55.458Z,20.13
2019-01-31T12:24:25.786Z,22.27
2019-01-31T12:26:56.510Z,24.13
2019-01-31T12:29:27.232Z,23.10
2019-01-31T12:31:57.486Z,21.70
2019-01-31T12:34:28.080Z,24.40
2019-01-31T12:36:58.390Z,24.17
2019-01-31T12:39:28.660Z,23.83
2019-01-31T12:41:58.959Z,22.17
2019-01-31T12:44:29.180Z,25.87
2019-01-31T12:46:59.354Z,25.57
2019-01-31T12:49:30.314Z,29.77
2019-01-31T12:52:00.512Z,26.70
2019-01-31T12:54:30.759Z,25.53
2019-01-31T12:57:01.368Z,23.63
2019-01-31T12:59:31.579Z,24.03
2019-01-31T13:02:01.865Z,24.90
2019-01-31T13:04:32.072Z,26.00
2019-01-31T13:07:02.553Z,30.07
2019-01-31T13:09:32.774Z,31.17
2019-01-31T13:12:02.999Z,29.83
2019-01-31T13:14:33.260Z,30.20
2019-01-31T13:17:04.218Z,28.10
2019-01-31T13:19:34.515Z,26.57
2019-01-31T13:22:04.825Z,26.47
2019-01-31T13:24:35.383Z,31.33
2019-01-31T13:27:06.396Z,27.67
2019-01-31T13:29:36.963Z,27.87
2019-01-31T13:32:07.606Z,24.43
2019-01-31T13:34:37.769Z,26.63
2019-01-31T13:37:08.489Z,24.10
2019-01-31T13:39:38.685Z,32.50
2019-01-31T13:42:09.365Z,35.37
2019-01-31T13:44:40.173Z,34.97
2019-01-31T13:47:10.429Z,39.20
2019-01-31T13:49:40.697Z,40.27
2019-01-31T13:52:11.515Z,44.33
2019-01-31T13:54:42.533Z,46.57
2019-01-31T13:57:12.823Z,39.20
2019-01-31T13:59:43.102Z,36.03
2019-01-31T14:02:13.376Z,38.27
2019-01-31T14:04:44.034Z,36.37
2019-01-31T14:07:14.605Z,39.67
2019-01-31T14:09:45.154Z,38.77
2019-01-31T14:12:15.396Z,35.60
2019-01-31T14:14:46.020Z,34.20
2019-01-31T14:17:16.262Z,28.10
2019-01-31T14:19:46.588Z,27.53
2019-01-31T14:22:16.926Z,29.20
2019-01-31T14:24:47.171Z,25.90
2019-01-31T14:27:17.470Z,28.93
2019-01-31T14:29:48.073Z,26.50
2019-01-31T14:32:19.948Z,26.63
2019-01-31T14:34:50.245Z,26.50
2019-01-31T14:37:20.426Z,26.77
2019-01-31T14:39:50.714Z,28.87
2019-01-31T14:42:20.929Z,22.23
2019-01-31T14:44:51.743Z,23.13
2019-01-31T14:47:21.971Z,23.23
2019-01-31T14:49:52.254Z,23.00
2019-01-31T14:52:22.457Z,24.67
2019-01-31T14:54:52.752Z,25.40
2019-01-31T14:57:23.426Z,29.20
2019-01-31T14:59:53.941Z,29.23
2019-01-31T15:02:24.341Z,27.57
2019-01-31T15:04:54.656Z,25.07
2019-01-31T15:07:24.890Z,26.50
2019-01-31T15:09:55.065Z,26.13
2019-01-31T15:12:25.268Z,25.43
2019-01-31T15:14:55.537Z,26.90
2019-01-31T15:17:26.268Z,22.33
2019-01-31T15:19:56.634Z,24.10
2019-01-31T15:22:26.884Z,21.03
2019-01-31T15:24:57.526Z,19.23
2019-01-31T15:27:28.079Z,19.03
2019-01-31T15:29:58.705Z,19.23
2019-01-31T15:32:29.384Z,19.23
2019-01-31T15:34:59.594Z,20.80
2019-01-31T15:37:30.280Z,20.83
2019-01-31T15:40:01.032Z,23.30
2019-01-31T15:42:31.238Z,25.57
2019-01-31T15:45:01.505Z,23.40
2019-01-31T15:47:31.661Z,25.70
2019-01-31T15:50:02.403Z,27.60
2019-01-31T15:52:33.003Z,26.90
2019-01-31T15:55:03.563Z,26.10
2019-01-31T15:57:34.567Z,25.47
2019-01-31T16:00:08.604Z,32.57
2019-01-31T16:02:38.801Z,31.47
2019-01-31T16:05:18.807Z,28.73
2019-01-31T16:07:42.372Z,29.70
2019-01-31T16:10:13.484Z,30.57
2019-01-31T16:12:43.777Z,28.67
2019-01-31T16:15:14.826Z,28.63
2019-01-31T16:17:45.505Z,30.27
2019-01-31T16:20:15.857Z,33.10
2019-01-31T16:22:46.199Z,31.53
2019-01-31T16:25:16.775Z,32.63
2019-01-31T16:27:47.004Z,31.67
2019-01-31T16:30:18.383Z,30.30
2019-01-31T16:32:49.028Z,27.20
2019-01-31T16:35:19.331Z,28.73
2019-01-31T16:37:50.528Z,30.40
2019-01-31T16:40:21.092Z,32.93
2019-01-31T16:42:51.509Z,34.57
2019-01-31T16:45:22.129Z,36.90
2019-01-31T16:47:52.696Z,37.50
2019-01-31T16:50:23.077Z,37.37
2019-01-31T16:52:53.661Z,34.83
2019-01-31T16:55:24.993Z,35.87
2019-01-31T16:57:55.349Z,36.33
2019-01-31T17:00:27.976Z,36.50
2019-01-31T17:02:58.675Z,31.07
2019-01-31T17:05:30.613Z,30.17
2019-01-31T17:08:01.249Z,31.00
2019-01-31T17:10:31.545Z,34.17
2019-01-31T17:13:02.280Z,39.00
2019-01-31T17:15:32.640Z,35.67
2019-01-31T17:18:03.295Z,36.30
2019-01-31T17:20:44.264Z,38.30
2019-01-31T17:23:14.797Z,41.10
2019-01-31T17:25:45.129Z,39.87
2019-01-31T17:28:15.738Z,45.00
2019-01-31T17:30:46.089Z,41.60
2019-01-31T17:33:16.301Z,41.37
2019-01-31T17:35:46.965Z,39.63
2019-01-31T17:38:17.161Z,36.53
2019-01-31T17:40:47.422Z,38.33
2019-01-31T17:43:17.787Z,40.30
2019-01-31T17:45:48.214Z,44.83
2019-01-31T17:48:18.530Z,42.30
2019-01-31T17:50:49.144Z,44.80
2019-01-31T17:53:19.373Z,45.07
2019-01-31T17:55:49.603Z,48.60
2019-01-31T17:58:19.818Z,60.27
2019-01-31T18:01:08.025Z,50.90
2019-01-31T18:03:38.324Z,58.83
2019-01-31T18:06:08.640Z,52.50
2019-01-31T18:08:39.146Z,50.67
2019-01-31T18:11:09.912Z,47.88
2019-01-31T18:13:40.383Z,69.60
2019-01-31T18:16:10.911Z,56.87
2019-01-31T18:18:41.213Z,55.53
2019-01-31T18:21:13.019Z,46.23
2019-01-31T18:23:44.035Z,57.17
2019-01-31T18:26:14.270Z,51.53
2019-01-31T18:28:44.559Z,50.20
2019-01-31T18:31:14.713Z,40.75
2019-01-31T18:33:44.966Z,45.97
2019-01-31T18:36:15.513Z,47.67
2019-01-31T18:38:45.831Z,44.53
2019-01-31T18:41:16.104Z,43.67
2019-01-31T18:43:46.655Z,47.10
2019-01-31T18:46:17.274Z,47.13
2019-01-31T18:48:47.858Z,51.03
2019-01-31T18:51:18.108Z,48.30
2019-01-31T18:53:48.660Z,47.60
2019-01-31T18:56:19.753Z,45.60
2019-01-31T18:58:50.309Z,45.53
2019-01-31T19:01:21.464Z,47.33
2019-01-31T19:03:51.784Z,46.73
2019-01-31T19:06:22.090Z,49.20
2019-01-31T19:08:52.718Z,56.00
2019-01-31T19:11:23.944Z,52.57
2019-01-31T19:13:54.158Z,51.63
2019-01-31T19:16:24.409Z,52.87
2019-01-31T19:18:54.619Z,46.40
2019-01-31T19:21:25.271Z,45.47
2019-01-31T19:23:55.489Z,48.00
2019-01-31T19:26:26.022Z,42.00
2019-01-31T19:28:56.241Z,45.77
2019-01-31T19:31:26.541Z,48.30
2019-01-31T19:33:57.061Z,46.17
2019-01-31T19:36:27.640Z,51.13
2019-01-31T19:38:57.995Z,63.73
2019-01-31T19:41:28.216Z,59.20
2019-01-31T19:43:58.788Z,76.20
2019-01-31T19:46:29.337Z,84.13
2019-01-31T19:48:59.694Z,244.20
2019-01-31T19:51:30.805Z,56.87
2019-01-31T19:54:01.052Z,86.10
2019-01-31T19:56:31.676Z,67.27
2019-01-31T19:59:01.875Z,42.83
2019-01-31T20:01:32.534Z,43.77
2019-01-31T20:04:02.742Z,42.73
2019-01-31T20:06:32.992Z,36.83
2019-01-31T20:09:04.786Z,40.63
2019-01-31T20:11:35.378Z,40.70
2019-01-31T20:14:05.648Z,39.03
2019-01-31T20:16:35.940Z,38.90
2019-01-31T20:19:06.191Z,38.40
2019-01-31T20:21:36.413Z,36.57
2019-01-31T20:24:06.628Z,35.23
2019-01-31T20:26:36.842Z,35.60
2019-01-31T20:29:07.051Z,36.77
2019-01-31T20:31:37.294Z,31.23
2019-01-31T20:34:07.790Z,33.43
2019-01-31T20:36:38.082Z,32.83
2019-01-31T20:39:09.813Z,30.37
2019-01-31T20:41:40.487Z,32.83
2019-01-31T20:44:10.705Z,33.97
2019-01-31T20:46:41.035Z,29.50
2019-01-31T20:49:11.295Z,30.27
2019-01-31T20:51:41.565Z,34.10
2019-01-31T20:54:12.101Z,30.70
2019-01-31T20:56:42.393Z,33.63
2019-01-31T20:59:12.628Z,31.53
2019-01-31T21:01:42.901Z,34.90
2019-01-31T21:04:13.558Z,30.97
2019-01-31T21:06:43.847Z,28.27
2019-01-31T21:09:14.806Z,35.13
2019-01-31T21:11:45.105Z,28.37
2019-01-31T21:14:15.624Z,32.37
2019-01-31T21:16:51.962Z,30.40
2019-01-31T21:19:18.199Z,28.50
2019-01-31T21:21:48.456Z,30.43
2019-01-31T21:24:19.754Z,32.07
2019-01-31T21:26:50.053Z,30.00
2019-01-31T21:29:20.325Z,29.10
2019-01-31T21:31:50.555Z,30.13
2019-01-31T21:34:20.756Z,28.20
2019-01-31T21:36:51.084Z,28.57
2019-01-31T21:39:21.296Z,27.87
2019-01-31T21:41:51.547Z,29.30
2019-01-31T21:44:21.733Z,28.73
2019-01-31T21:47:02.415Z,30.93
2019-01-31T21:49:23.874Z,30.73
2019-01-31T21:51:54.195Z,34.03
2019-01-31T21:54:24.422Z,27.70
2019-01-31T21:56:54.667Z,25.83
2019-01-31T21:59:25.224Z,27.83
2019-01-31T22:01:55.508Z,31.57
2019-01-31T22:04:28.549Z,29.37
2019-01-31T22:06:57.926Z,24.87
2019-01-31T22:09:28.493Z,27.43
2019-01-31T22:11:58.793Z,28.17
2019-01-31T22:14:28.992Z,24.43
2019-01-31T22:16:59.211Z,23.07
2019-01-31T22:19:29.825Z,24.13
2019-01-31T22:22:00.353Z,24.10
2019-01-31T22:24:30.629Z,25.70
2019-01-31T22:27:00.892Z,27.40
2019-01-31T22:29:31.064Z,25.07
2019-01-31T22:32:01.324Z,26.13
2019-01-31T22:34:31.595Z,24.93
2019-01-31T22:37:01.833Z,24.10
2019-01-31T22:39:32.069Z,24.27
2019-01-31T22:42:02.543Z,25.33
2019-01-31T22:44:33.100Z,24.37
2019-01-31T22:47:03.295Z,23.80
2019-01-31T22:49:33.539Z,25.47
2019-01-31T22:52:04.239Z,24.60
2019-01-31T22:54:34.495Z,27.10
2019-01-31T22:57:05.141Z,24.77
2019-01-31T22:59:35.345Z,25.57
2019-01-31T23:02:14.666Z,23.90
2019-01-31T23:04:44.890Z,28.43
2019-01-31T23:07:15.199Z,23.57
2019-01-31T23:09:45.529Z,22.70
2019-01-31T23:12:15.721Z,23.83
2019-01-31T23:14:46.380Z,24.27
2019-01-31T23:17:16.937Z,25.67
2019-01-31T23:19:47.094Z,24.73
2019-01-31T23:22:17.336Z,25.50
2019-01-31T23:24:47.581Z,23.63
2019-01-31T23:27:17.793Z,24.63
2019-01-31T23:29:48.330Z,24.93
2019-01-31T23:32:19.079Z,23.67
2019-01-31T23:34:49.788Z,24.70
2019-01-31T23:37:19.947Z,25.47
2019-01-31T23:39:50.112Z,23.67
2019-01-31T23:42:20.301Z,23.90
2019-01-31T23:44:50.788Z,24.50
2019-01-31T23:47:21.080Z,23.87
2019-01-31T23:49:51.334Z,23.47
2019-01-31T23:52:21.569Z,23.73
2019-01-31T23:54:51.792Z,27.30
2019-01-31T23:57:22.063Z,24.60
2019-01-31T23:59:52.650Z,25.83
